Time;durP1;ratioP1;P1;durP2;ratioP2;P2;SDS_P1;SDS_P2;PMS_P1;PMS_P2;Temp;Humidity;BMP_temperature;BMP_pressure;BME280_temperature;BME280_humidity;BME280_pressure;Samples;Min_cycle;Max_cycle;Signal;HPM_P1;HPM_P2
2023/11/27 00:01:08;;;;;;;;;;;;;;;;;;4969821;28;20068;-72
2023/11/27 00:03:33;;;;;;;;;;;;;;;;;;4972352;28;20481;-73
2023/11/27 00:05:58;;;;;;;;;;;;;;;;;;4953003;28;19922;-72
2023/11/27 00:08:24;;;;;;;;;;;;;;;;;;4955650;28;19922;-73
2023/11/27 00:10:49;;;;;;;;;;;;;;;;;;4973085;28;19918;-73
2023/11/27 00:13:15;;;;;;;;;;;;;;;;;;4970875;28;19984;-72
2023/11/27 00:15:40;;;;;;;;;;;;;;;;;;4955671;28;19924;-72
2023/11/27 00:18:05;;;;;;;;;;;;;;;;;;4972315;28;20000;-72
2023/11/27 00:20:31;;;;;;;;;;;;;;;;;;4956133;28;19918;-73
2023/11/27 00:22:58;;;;;;;;;;;;;;;;;;4971601;28;19925;-72
2023/11/27 00:25:24;;;;;;;;;;;;;;;;;;4956065;28;20194;-72
2023/11/27 00:27:49;;;;;;;;;;;;;;;;;;4969906;28;19918;-72
2023/11/27 00:30:16;;;;;;;;;;;;;;;;;;4957652;28;20040;-72
2023/11/27 00:32:41;;;;;;;;;;;;;;;;;;4969093;28;20431;-72
2023/11/27 00:35:06;;;;;;;;;;;;;;;;;;4972053;28;20056;-72
2023/11/27 00:37:31;;;;;;;;;;;;;;;;;;4957615;28;19956;-72
2023/11/27 00:39:57;;;;;;;;;;;;;;;;;;4971639;28;19922;-73
2023/11/27 00:42:22;;;;;;;;;;;;;;;;;;4969319;28;20280;-73
2023/11/27 00:44:47;;;;;;;;;;;;;;;;;;4955231;28;19925;-72
2023/11/27 00:47:13;;;;;;;;;;;;;;;;;;4950670;28;19999;-72
2023/11/27 00:49:41;;;;;;;;;;;;;;;;;;4954497;28;20182;-73
2023/11/27 00:52:06;;;;;;;;;;;;;;;;;;4972499;28;19928;-73
2023/11/27 00:54:32;;;;;;;;;;;;;;;;;;4954794;28;19921;-73
2023/11/27 00:56:57;;;;;;;;;;;;;;;;;;4966809;28;20321;-72
2023/11/27 00:59:22;;;;;;;;;;;;;;;;;;4952479;28;19993;-72
2023/11/27 01:01:48;;;;;;;;;;;;;;;;;;4950690;28;19918;-71
2023/11/27 01:04:13;;;;;;;;;;;;;;;;;;4966142;28;20044;-74
2023/11/27 01:06:38;;;;;;;;;;;;;;;;;;4946952;28;20005;-71
2023/11/27 01:09:06;;;;;;;;;;;;;;;;;;4949528;28;19929;-72
2023/11/27 01:11:31;;;;;;;;;;;;;;;;;;4949115;28;19941;-72
2023/11/27 01:13:57;;;;;;;;;;;;;;;;;;4952080;28;19922;-73
2023/11/27 01:16:22;;;;;;;;;;;;;;;;;;4964944;28;19969;-72
2023/11/27 01:18:47;;;;;;;;;;;;;;;;;;4965383;28;19930;-73
2023/11/27 01:21:13;;;;;;;;;;;;;;;;;;4934765;28;19996;-72
2023/11/27 01:23:39;;;;;;;;;;;;;;;;;;4965364;28;19977;-72
2023/11/27 01:26:04;;;;;;;;;;;;;;;;;;4945022;28;20446;-72
2023/11/27 01:28:29;;;;;;;;;;;;;;;;;;4932862;28;19918;-71
2023/11/27 01:30:55;;;;;;;;;;;;;;;;;;4948469;28;20400;-72
2023/11/27 01:33:21;;;;;;;;;;;;;;;;;;4950518;28;20344;-72
2023/11/27 01:35:46;;;;;;;;;;;;;;;;;;4952806;28;20007;-72
2023/11/27 01:38:11;;;;;;;;;;;;;;;;;;4948138;28;19929;-72
2023/11/27 01:40:37;;;;;;;;;;;;;;;;;;4968305;28;20796;-71
2023/11/27 01:43:02;;;;;;;;;;;;;;;;;;4950731;28;20457;-72
2023/11/27 01:45:27;;;;;;;;;;;;;;;;;;4948866;28;19965;-72
2023/11/27 01:47:53;;;;;;;;;;;;;;;;;;4949669;28;19926;-72
2023/11/27 01:50:18;;;;;;;;;;;;;;;;;;4963879;28;19929;-72
2023/11/27 01:52:43;;;;;;;;;;;;;;;;;;4947673;28;20305;-71
2023/11/27 01:55:09;;;;;;;;;;;;;;;;;;4950786;28;19957;-72
2023/11/27 01:57:34;;;;;;;;;;;;;;;;;;4964462;28;20393;-72
2023/11/27 01:59:59;;;;;;;;;;;;;;;;;;4964728;28;19918;-72
2023/11/27 02:02:25;;;;;;;;;;;;;;;;;;4947719;28;19937;-72
2023/11/27 02:04:50;;;;;;;;;;;;;;;;;;4949533;28;20285;-73
2023/11/27 02:07:15;;;;;;;;;;;;;;;;;;4949310;28;20172;-72
2023/11/27 02:09:41;;;;;;;;;;;;;;;;;;4945400;28;19928;-74
2023/11/27 02:12:06;;;;;;;;;;;;;;;;;;4944870;28;19918;-73
2023/11/27 02:14:31;;;;;;;;;;;;;;;;;;4949592;28;20029;-73
2023/11/27 02:16:57;;;;;;;;;;;;;;;;;;4948463;28;20436;-73
2023/11/27 02:19:22;;;;;;;;;;;;;;;;;;4947684;28;19925;-73
2023/11/27 02:21:47;;;;;;;;;;;;;;;;;;4947530;28;19922;-72
2023/11/27 02:24:15;;;;;;;;;;;;;;;;;;4946273;28;19918;-72
2023/11/27 02:26:41;;;;;;;;;;;;;;;;;;4945902;28;20263;-71
2023/11/27 02:29:06;;;;;;;;;;;;;;;;;;4965898;28;19972;-72
2023/11/27 02:31:31;;;;;;;;;;;;;;;;;;4963764;28;19929;-70
2023/11/27 02:33:57;;;;;;;;;;;;;;;;;;4949088;28;20313;-71
2023/11/27 02:36:22;;;;;;;;;;;;;;;;;;4947223;28;19941;-69
2023/11/27 02:38:48;;;;;;;;;;;;;;;;;;4963672;28;20001;-69
2023/11/27 02:41:13;;;;;;;;;;;;;;;;;;4940883;28;20566;-69
2023/11/27 02:43:39;;;;;;;;;;;;;;;;;;4949633;28;19926;-68
2023/11/27 02:46:05;;;;;;;;;;;;;;;;;;4962447;28;19922;-68
2023/11/27 02:48:33;;;;;;;;;;;;;;;;;;4948768;28;19922;-67
2023/11/27 02:50:58;;;;;;;;;;;;;;;;;;4962995;28;19918;-68
2023/11/27 02:53:24;;;;;;;;;;;;;;;;;;4946119;28;19918;-68
2023/11/27 02:55:49;;;;;;;;;;;;;;;;;;4951097;28;19918;-67
2023/11/27 02:58:15;;;;;;;;;;;;;;;;;;4959355;28;20133;-67
2023/11/27 03:00:41;;;;;;;;;;;;;;;;;;4948775;28;20378;-68
2023/11/27 03:03:06;;;;;;;;;;;;;;;;;;4947871;28;19918;-68
2023/11/27 03:05:32;;;;;;;;;;;;;;;;;;4947847;28;19929;-69
2023/11/27 03:07:57;;;;;;;;;;;;;;;;;;4948181;28;20012;-67
2023/11/27 03:10:23;;;;;;;;;;;;;;;;;;4964641;28;19918;-68
2023/11/27 03:12:48;;;;;;;;;;;;;;;;;;4963149;28;19922;-68
2023/11/27 03:15:15;;;;;;;;;;;;;;;;;;4948067;28;22090;-69
2023/11/27 03:17:41;;;;;;;;;;;;;;;;;;4964155;28;19918;-68
2023/11/27 03:20:09;;;;;;;;;;;;;;;;;;4964123;28;19961;-69
2023/11/27 03:22:34;;;;;;;;;;;;;;;;;;4950600;28;20049;-68
2023/11/27 03:24:59;;;;;;;;;;;;;;;;;;4950759;28;19957;-67
2023/11/27 03:27:27;;;;;;;;;;;;;;;;;;4948659;28;19926;-67
2023/11/27 03:29:52;;;;;;;;;;;;;;;;;;4961632;28;20012;-67
2023/11/27 03:32:23;;;;;;;;;;;;;;;;;;4963138;28;19972;-67
2023/11/27 03:34:48;;;;;;;;;;;;;;;;;;4953543;28;19962;-67
2023/11/27 03:37:13;;;;;;;;;;;;;;;;;;4952590;28;20013;-67
2023/11/27 03:39:39;;;;;;;;;;;;;;;;;;4953879;28;20020;-67
2023/11/27 03:42:04;;;;;;;;;;;;;;;;;;4952303;28;19918;-68
2023/11/27 03:44:33;;;;;;;;;;;;;;;;;;4948717;28;19932;-69
2023/11/27 03:46:59;;;;;;;;;;;;;;;;;;4962564;28;20014;-68
2023/11/27 03:49:24;;;;;;;;;;;;;;;;;;4955746;28;19922;-68
2023/11/27 03:51:49;;;;;;;;;;;;;;;;;;4953081;28;20020;-68
2023/11/27 03:54:15;;;;;;;;;;;;;;;;;;4967251;28;19925;-68
2023/11/27 03:56:43;;;;;;;;;;;;;;;;;;4952478;28;20389;-68
2023/11/27 03:59:11;;;;;;;;;;;;;;;;;;4954331;28;19977;-69
2023/11/27 04:01:36;;;;;;;;;;;;;;;;;;4952200;28;20013;-69
2023/11/27 04:04:04;;;;;;;;;;;;;;;;;;4968008;28;20558;-68
2023/11/27 04:06:31;;;;;;;;;;;;;;;;;;4953272;28;19922;-68
2023/11/27 04:08:57;;;;;;;;;;;;;;;;;;4968549;28;19918;-68
2023/11/27 04:11:27;;;;;;;;;;;;;;;;;;4953370;28;19957;-68
2023/11/27 04:13:52;;;;;;;;;;;;;;;;;;4953568;28;19921;-68
2023/11/27 04:16:17;;;;;;;;;;;;;;;;;;4967681;28;19922;-68
2023/11/27 04:18:43;;;;;;;;;;;;;;;;;;4953173;28;19930;-68
2023/11/27 04:21:10;;;;;;;;;;;;;;;;;;4952045;28;19926;-68
2023/11/27 04:23:38;;;;;;;;;;;;;;;;;;4967043;28;20155;-68
2023/11/27 04:26:06;;;;;;;;;;;;;;;;;;4940855;28;20072;-68
2023/11/27 04:28:32;;;;;;;;;;;;;;;;;;4945577;28;19914;-69
2023/11/27 04:30:58;;;;;;;;;;;;;;;;;;4948561;28;20313;-68
2023/11/27 04:33:24;;;;;;;;;;;;;;;;;;4967355;28;19992;-68
2023/11/27 04:35:49;;;;;;;;;;;;;;;;;;4966126;28;19926;-68
2023/11/27 04:38:15;;;;;;;;;;;;;;;;;;4967092;28;20010;-67
2023/11/27 04:40:40;;;;;;;;;;;;;;;;;;4948795;28;19918;-67
2023/11/27 04:43:06;;;;;;;;;;;;;;;;;;4963965;28;20390;-67
2023/11/27 04:45:34;;;;;;;;;;;;;;;;;;4946955;28;20374;-67
2023/11/27 04:48:02;;;;;;;;;;;;;;;;;;4950163;28;20084;-68
2023/11/27 04:50:27;;;;;;;;;;;;;;;;;;4966047;28;20344;-68
2023/11/27 04:52:52;;;;;;;;;;;;;;;;;;4950156;28;19971;-67
2023/11/27 04:55:18;;;;;;;;;;;;;;;;;;4950530;28;19968;-67
2023/11/27 04:57:46;;;;;;;;;;;;;;;;;;4963954;28;19964;-67
2023/11/27 05:00:15;;;;;;;;;;;;;;;;;;4962626;28;19926;-67
2023/11/27 05:02:43;;;;;;;;;;;;;;;;;;4964467;28;21600;-68
2023/11/27 05:05:08;;;;;;;;;;;;;;;;;;4951912;28;20005;-68
2023/11/27 05:07:37;;;;;;;;;;;;;;;;;;4949913;28;19922;-67
2023/11/27 05:10:02;;;;;;;;;;;;;;;;;;4950975;28;20310;-68
2023/11/27 05:12:28;;;;;;;;;;;;;;;;;;4949687;28;20313;-67
2023/11/27 05:14:53;;;;;;;;;;;;;;;;;;4950002;28;20396;-68
2023/11/27 05:17:22;;;;;;;;;;;;;;;;;;4946708;28;19918;-68
2023/11/27 05:19:47;;;;;;;;;;;;;;;;;;4947801;28;19976;-68
2023/11/27 05:22:14;;;;;;;;;;;;;;;;;;4949086;28;19922;-72
2023/11/27 05:24:39;;;;;;;;;;;;;;;;;;4952676;28;19922;-66
2023/11/27 05:27:07;;;;;;;;;;;;;;;;;;4951920;28;20393;-69
2023/11/27 05:29:32;;;;;;;;;;;;;;;;;;4950514;28;19914;-69
2023/11/27 05:32:07;;;;;;;;;;;;;;;;;;4965282;28;19920;-69
2023/11/27 05:34:38;;;;;;;;;;;;;;;;;;4951211;28;20297;-68
2023/11/27 05:37:09;;;;;;;;;;;;;;;;;;4947732;28;19922;-67
2023/11/27 05:39:35;;;;;;;;;;;;;;;;;;4964622;28;19992;-68
2023/11/27 05:42:03;;;;;;;;;;;;;;;;;;4949102;28;19918;-68
2023/11/27 05:44:28;;;;;;;;;;;;;;;;;;4947868;28;20259;-68
2023/11/27 05:46:53;;;;;;;;;;;;;;;;;;4945783;28;19925;-68
2023/11/27 05:49:19;;;;;;;;;;;;;;;;;;4966711;28;19928;-67
2023/11/27 05:51:47;;;;;;;;;;;;;;;;;;4964074;28;19922;-69
2023/11/27 05:54:12;;;;;;;;;;;;;;;;;;4950505;28;19934;-68
2023/11/27 05:56:37;;;;;;;;;;;;;;;;;;4956556;28;19929;-69
2023/11/27 05:59:03;;;;;;;;;;;;;;;;;;4971374;28;20501;-69
2023/11/27 06:01:31;;;;;;;;;;;;;;;;;;4954256;28;19957;-67
2023/11/27 06:03:57;;;;;;;;;;;;;;;;;;4953905;28;19922;-71
2023/11/27 06:06:22;;;;;;;;;;;;;;;;;;4952853;28;20305;-68
2023/11/27 06:08:47;;;;;;;;;;;;;;;;;;4951894;28;19921;-66
2023/11/27 06:11:16;;;;;;;;;;;;;;;;;;4953142;28;20491;-67
2023/11/27 06:13:42;;;;;;;;;;;;;;;;;;4969950;28;19961;-66
2023/11/27 06:16:07;;;;;;;;;;;;;;;;;;4953705;28;20422;-68
2023/11/27 06:18:33;;;;;;;;;;;;;;;;;;4951809;28;19921;-68
2023/11/27 06:21:02;;;;;;;;;;;;;;;;;;4970752;28;19925;-67
2023/11/27 06:23:32;;;;;;;;;;;;;;;;;;4970297;28;19944;-69
2023/11/27 06:25:57;;;;;;;;;;;;;;;;;;4970540;28;20017;-67
2023/11/27 06:28:26;;;;;;;;;;;;;;;;;;4970507;28;20180;-68
2023/11/27 06:30:54;;;;;;;;;;;;;;;;;;4966643;28;19921;-68
2023/11/27 06:33:20;;;;;;;;;;;;;;;;;;4969482;28;20357;-67
2023/11/27 06:35:51;;;;;;;;;;;;;;;;;;4971284;28;20000;-68
2023/11/27 06:38:18;;;;;;;;;;;;;;;;;;4971312;28;19953;-66
2023/11/27 06:40:44;;;;;;;;;;;;;;;;;;4953068;28;19922;-66
2023/11/27 06:43:10;;;;;;;;;;;;;;;;;;4967646;28;19922;-68
2023/11/27 06:45:35;;;;;;;;;;;;;;;;;;4950927;28;20409;-69
2023/11/27 06:48:01;;;;;;;;;;;;;;;;;;4965798;28;20016;-68
2023/11/27 06:50:26;;;;;;;;;;;;;;;;;;4953430;28;19921;-70
2023/11/27 06:52:52;;;;;;;;;;;;;;;;;;4949668;28;19917;-69
2023/11/27 06:55:17;;;;;;;;;;;;;;;;;;4970443;28;19918;-68
2023/11/27 06:57:42;;;;;;;;;;;;;;;;;;4950016;28;19929;-70
2023/11/27 07:00:10;;;;;;;;;;;;;;;;;;4954507;28;19914;-67
2023/11/27 07:02:36;;;;;;;;;;;;;;;;;;4950869;28;20013;-71
2023/11/27 07:05:01;;;;;;;;;;;;;;;;;;4969976;28;19918;-69
2023/11/27 07:07:27;;;;;;;;;;;;;;;;;;4970275;28;20337;-70
2023/11/27 07:09:56;;;;;;;;;;;;;;;;;;4952677;28;20329;-66
2023/11/27 07:12:23;;;;;;;;;;;;;;;;;;4955633;28;19953;-67
2023/11/27 07:14:49;;;;;;;;;;;;;;;;;;4956892;28;20688;-70
2023/11/27 07:17:15;;;;;;;;;;;;;;;;;;4952571;28;19917;-69
2023/11/27 07:22:26;;;;;;;;;;;;;;;;;;4954895;28;19926;-68
2023/11/27 07:24:52;;;;;;;;;;;;;;;;;;4958277;28;20384;-67
2023/11/27 07:27:18;;;;;;;;;;;;;;;;;;4971310;28;19968;-68
2023/11/27 07:29:43;;;;;;;;;;;;;;;;;;4973345;28;19921;-70
2023/11/27 07:32:09;;;;;;;;;;;;;;;;;;4949444;28;20392;-69
2023/11/27 07:34:34;;;;;;;;;;;;;;;;;;4951485;28;19960;-70
2023/11/27 07:37:00;;;;;;;;;;;;;;;;;;4954349;28;20153;-69
2023/11/27 07:39:25;;;;;;;;;;;;;;;;;;4955169;28;20833;-70
2023/11/27 07:41:51;;;;;;;;;;;;;;;;;;4954203;28;20333;-68
2023/11/27 07:44:17;;;;;;;;;;;;;;;;;;4953570;28;19925;-67
2023/11/27 07:46:51;;;;;;;;;;;;;;;;;;4954725;28;19926;-68
2023/11/27 07:49:18;;;;;;;;;;;;;;;;;;4956899;28;19929;-67
2023/11/27 07:51:46;;;;;;;;;;;;;;;;;;4955360;28;19921;-68
2023/11/27 08:00:26;;;;;;;;;;;;;;;;;;4967559;28;19988;-67
2023/11/27 08:02:53;;;;;;;;;;;;;;;;;;4950798;28;19973;-67
2023/11/27 08:05:18;;;;;;;;;;;;;;;;;;4971014;28;19928;-69
2023/11/27 08:07:43;;;;;;;;;;;;;;;;;;4954863;28;19917;-68
2023/11/27 08:10:09;;;;;;;;;;;;;;;;;;4972907;28;19961;-69
2023/11/27 08:12:36;;;;;;;;;;;;;;;;;;4970714;28;20284;-67
2023/11/27 08:15:04;;;;;;;;;;;;;;;;;;4956792;28;20071;-70
2023/11/27 08:17:33;;;;;;;;;;;;;;;;;;4970123;28;20836;-68
2023/11/27 08:19:58;;;;;;;;;;;;;;;;;;4958717;28;19921;-69
2023/11/27 08:22:24;;;;;;;;;;;;;;;;;;4955095;28;19957;-69
2023/11/27 08:24:52;;;;;;;;;;;;;;;;;;4957696;28;20354;-67
2023/11/27 08:27:20;;;;;;;;;;;;;;;;;;4953980;28;19921;-68
2023/11/27 08:29:46;;;;;;;;;;;;;;;;;;4973766;28;19922;-67
2023/11/27 08:32:11;;;;;;;;;;;;;;;;;;4951029;28;19929;-68
2023/11/27 08:34:36;;;;;;;;;;;;;;;;;;4971737;28;20015;-70
2023/11/27 08:37:06;;;;;;;;;;;;;;;;;;4971570;28;20634;-68
2023/11/27 08:39:31;;;;;;;;;;;;;;;;;;4971402;28;20355;-68
2023/11/27 08:41:56;;;;;;;;;;;;;;;;;;4951672;28;19922;-68
2023/11/27 08:44:22;;;;;;;;;;;;;;;;;;4970836;28;20424;-69
2023/11/27 08:46:47;;;;;;;;;;;;;;;;;;4970648;28;19928;-68
2023/11/27 08:49:12;;;;;;;;;;;;;;;;;;4952554;28;20357;-67
2023/11/27 08:51:41;;;;;;;;;;;;;;;;;;4972741;28;19996;-67
2023/11/27 08:54:08;;;;;;;;;;;;;;;;;;4954614;28;20456;-68
2023/11/27 08:56:33;;;;;;;;;;;;;;;;;;4973709;28;20689;-68
2023/11/27 08:59:00;;;;;;;;;;;;;;;;;;4956555;28;20480;-68
2023/11/27 09:01:25;;;;;;;;;;;;;;;;;;4970764;28;20281;-67
2023/11/27 09:03:50;;;;;;;;;;;;;;;;;;4952978;28;19922;-68
2023/11/27 09:06:16;;;;;;;;;;;;;;;;;;4968269;28;20447;-68
2023/11/27 09:08:42;;;;;;;;;;;;;;;;;;4956094;28;19924;-69
2023/11/27 09:11:08;;;;;;;;;;;;;;;;;;4970581;28;19933;-69
2023/11/27 09:13:33;;;;;;;;;;;;;;;;;;4952875;28;20369;-67
2023/11/27 09:15:58;;;;;;;;;;;;;;;;;;4967662;28;20396;-69
2023/11/27 09:18:24;;;;;;;;;;;;;;;;;;4947243;28;20672;-69
2023/11/27 09:20:53;;;;;;;;;;;;;;;;;;4969380;28;19922;-68
2023/11/27 09:23:18;;;;;;;;;;;;;;;;;;4952318;28;19917;-68
2023/11/27 09:26:02;;;;;;;;;;;;;;;;;;4932741;28;20281;-68
2023/11/27 09:35:04;;;;;;;;;;;;;;;;;;4967360;28;19924;-70
2023/11/27 09:37:33;;;;;;;;;;;;;;;;;;4971048;28;19918;-67
2023/11/27 09:39:59;;;;;;;;;;;;;;;;;;4955186;28;19921;-66
2023/11/27 09:42:24;;;;;;;;;;;;;;;;;;4952570;28;20369;-69
2023/11/27 09:44:50;;;;;;;;;;;;;;;;;;4971818;28;19917;-69
2023/11/27 09:47:18;;;;;;;;;;;;;;;;;;4954129;28;20224;-68
2023/11/27 09:49:47;;;;;;;;;;;;;;;;;;4953445;28;20783;-68
2023/11/27 09:52:13;;;;;;;;;;;;;;;;;;4969702;28;20239;-68
2023/11/27 09:54:41;;;;;;;;;;;;;;;;;;4951499;28;19922;-68
2023/11/27 09:57:07;;;;;;;;;;;;;;;;;;4970400;28;19937;-67
2023/11/27 09:59:38;;;;;;;;;;;;;;;;;;4966858;28;20059;-68
2023/11/27 10:02:03;;;;;;;;;;;;;;;;;;4968459;28;20000;-68
2023/11/27 10:04:30;;;;;;;;;;;;;;;;;;4971630;28;20314;-68
2023/11/27 10:06:55;;;;;;;;;;;;;;;;;;4968297;28;19929;-68
2023/11/27 10:09:22;;;;;;;;;;;;;;;;;;4968766;28;19921;-67
2023/11/27 10:11:50;;;;;;;;;;;;;;;;;;4953069;28;20550;-68
2023/11/27 10:14:16;;;;;;;;;;;;;;;;;;4969149;28;19926;-68
2023/11/27 10:16:41;;;;;;;;;;;;;;;;;;4953998;28;20385;-68
2023/11/27 10:19:06;;;;;;;;;;;;;;;;;;4969716;28;19933;-68
2023/11/27 10:21:33;;;;;;;;;;;;;;;;;;4972752;28;20437;-67
2023/11/27 10:24:01;;;;;;;;;;;;;;;;;;4970118;28;19918;-68
2023/11/27 10:26:26;;;;;;;;;;;;;;;;;;4971836;28;20489;-69
2023/11/27 10:28:57;;;;;;;;;;;;;;;;;;4968253;28;19922;-67
2023/11/27 10:31:26;;;;;;;;;;;;;;;;;;4955761;28;20072;-68
2023/11/27 10:33:51;;;;;;;;;;;;;;;;;;4971464;28;19944;-69
2023/11/27 10:36:23;;;;;;;;;;;;;;;;;;4954717;28;20429;-67
2023/11/27 10:38:51;;;;;;;;;;;;;;;;;;4954346;28;19928;-69
2023/11/27 10:44:34;;;;;;;;;;;;;;;;;;4967501;28;20043;-70
2023/11/27 10:47:00;;;;;;;;;;;;;;;;;;4969612;28;19917;-67
2023/11/27 10:49:28;;;;;;;;;;;;;;;;;;4968744;28;20496;-68
2023/11/27 10:51:54;;;;;;;;;;;;;;;;;;4969759;28;19925;-68
2023/11/27 10:54:19;;;;;;;;;;;;;;;;;;4954656;28;20355;-71
2023/11/27 10:56:45;;;;;;;;;;;;;;;;;;4951293;28;19934;-69
2023/11/27 10:59:13;;;;;;;;;;;;;;;;;;4954593;28;19921;-70
2023/11/27 11:01:39;;;;;;;;;;;;;;;;;;4964657;28;20920;-69
2023/11/27 11:04:09;;;;;;;;;;;;;;;;;;4953634;28;20883;-68
2023/11/27 11:06:37;;;;;;;;;;;;;;;;;;4968740;28;20029;-69
2023/11/27 11:09:07;;;;;;;;;;;;;;;;;;4971130;28;19941;-70
2023/11/27 11:11:32;;;;;;;;;;;;;;;;;;4967695;28;20444;-67
2023/11/27 11:13:58;;;;;;;;;;;;;;;;;;4952967;28;19922;-68
2023/11/27 11:16:23;;;;;;;;;;;;;;;;;;4949070;28;19925;-70
2023/11/27 11:18:51;;;;;;;;;;;;;;;;;;4948699;28;19926;-71
2023/11/27 11:21:17;;;;;;;;;;;;;;;;;;4967753;28;19918;-71
2023/11/27 11:23:43;;;;;;;;;;;;;;;;;;4967146;28;20064;-69
2023/11/27 11:26:21;;;;;;;;;;;;;;;;;;4951927;28;19922;-69
2023/11/27 11:28:49;;;;;;;;;;;;;;;;;;4966476;28;19967;-76
2023/11/27 11:31:17;;;;;;;;;;;;;;;;;;4952182;28;19948;-73
2023/11/27 11:33:42;;;;;;;;;;;;;;;;;;4951830;28;19928;-71
2023/11/27 11:36:08;;;;;;;;;;;;;;;;;;4969257;28;19917;-69
2023/11/27 11:38:36;;;;;;;;;;;;;;;;;;4949340;28;19922;-71
2023/11/27 11:41:01;;;;;;;;;;;;;;;;;;4949073;28;20185;-70
2023/11/27 11:43:26;;;;;;;;;;;;;;;;;;4967304;28;19922;-70
2023/11/27 11:45:55;;;;;;;;;;;;;;;;;;4967035;28;19936;-68
2023/11/27 11:48:22;;;;;;;;;;;;;;;;;;4968776;28;19972;-72
2023/11/27 11:50:47;;;;;;;;;;;;;;;;;;4949347;28;19934;-71
2023/11/27 11:53:13;;;;;;;;;;;;;;;;;;4970176;28;19918;-76
2023/11/27 11:55:39;;;;;;;;;;;;;;;;;;4952137;28;19918;-72
2023/11/27 11:58:04;;;;;;;;;;;;;;;;;;4969315;28;20231;-73
2023/11/27 12:00:42;;;;;;;;;;;;;;;;;;4971269;28;19968;-73
2023/11/27 12:03:07;;;;;;;;;;;;;;;;;;4972210;28;19922;-70
2023/11/27 12:05:32;;;;;;;;;;;;;;;;;;4974914;28;19922;-72
2023/11/27 12:07:58;;;;;;;;;;;;;;;;;;4971826;28;19918;-70
2023/11/27 12:10:30;;;;;;;;;;;;;;;;;;4957180;28;19922;-72
2023/11/27 12:12:56;;;;;;;;;;;;;;;;;;4969426;28;20702;-72
2023/11/27 12:15:24;;;;;;;;;;;;;;;;;;4953962;28;21737;-72
2023/11/27 12:17:50;;;;;;;;;;;;;;;;;;4953415;28;19922;-70
2023/11/27 12:20:15;;;;;;;;;;;;;;;;;;4972676;28;19928;-73
2023/11/27 12:22:41;;;;;;;;;;;;;;;;;;4955419;28;19921;-71
2023/11/27 12:25:06;;;;;;;;;;;;;;;;;;4957161;28;20013;-74
2023/11/27 12:27:34;;;;;;;;;;;;;;;;;;4953565;28;20023;-71
2023/11/27 12:30:00;;;;;;;;;;;;;;;;;;4952341;28;19925;-72
2023/11/27 12:32:26;;;;;;;;;;;;;;;;;;4949456;28;19922;-73
2023/11/27 12:34:51;;;;;;;;;;;;;;;;;;4971116;28;20002;-75
2023/11/27 12:37:17;;;;;;;;;;;;;;;;;;4945998;28;20420;-74
2023/11/27 12:39:42;;;;;;;;;;;;;;;;;;4970321;28;19929;-73
2023/11/27 12:42:13;;;;;;;;;;;;;;;;;;4971209;28;19917;-73
2023/11/27 12:44:46;;;;;;;;;;;;;;;;;;4970493;28;19921;-74
2023/11/27 12:47:18;;;;;;;;;;;;;;;;;;4968451;28;20051;-73
2023/11/27 12:49:46;;;;;;;;;;;;;;;;;;4972609;28;20267;-73
2023/11/27 12:52:14;;;;;;;;;;;;;;;;;;4953580;28;19925;-74
2023/11/27 12:54:39;;;;;;;;;;;;;;;;;;4953632;28;19957;-73
2023/11/27 12:57:10;;;;;;;;;;;;;;;;;;4970046;28;20068;-75
2023/11/27 12:59:46;;;;;;;;;;;;;;;;;;4970208;28;19945;-75
2023/11/27 13:02:12;;;;;;;;;;;;;;;;;;4946668;28;19929;-75
2023/11/27 13:04:38;;;;;;;;;;;;;;;;;;4951700;28;20055;-75
2023/11/27 13:07:05;;;;;;;;;;;;;;;;;;4967975;28;22118;-76
2023/11/27 13:09:30;;;;;;;;;;;;;;;;;;4950598;28;19922;-75
2023/11/27 13:11:56;;;;;;;;;;;;;;;;;;4948838;28;20290;-75
2023/11/27 13:14:21;;;;;;;;;;;;;;;;;;4951846;28;19918;-74
2023/11/27 13:16:47;;;;;;;;;;;;;;;;;;4969452;28;19941;-76
2023/11/27 13:19:12;;;;;;;;;;;;;;;;;;4952608;28;19925;-73
2023/11/27 13:21:37;;;;;;;;;;;;;;;;;;4953563;28;19933;-74
2023/11/27 13:24:04;;;;;;;;;;;;;;;;;;4952130;28;20492;-74
2023/11/27 13:26:35;;;;;;;;;;;;;;;;;;4967599;28;19928;-74
2023/11/27 13:29:01;;;;;;;;;;;;;;;;;;4972333;28;19918;-73
2023/11/27 13:31:33;;;;;;;;;;;;;;;;;;4948902;28;20344;-74
2023/11/27 13:34:06;;;;;;;;;;;;;;;;;;4971103;28;19922;-74
2023/11/27 13:36:32;;;;;;;;;;;;;;;;;;4967412;28;19918;-74
2023/11/27 13:39:07;;;;;;;;;;;;;;;;;;4968674;28;19972;-76
2023/11/27 13:41:32;;;;;;;;;;;;;;;;;;4970056;28;19961;-77
2023/11/27 13:43:57;;;;;;;;;;;;;;;;;;4953015;28;19926;-75
2023/11/27 13:46:23;;;;;;;;;;;;;;;;;;4967450;28;19988;-76
2023/11/27 13:48:53;;;;;;;;;;;;;;;;;;4968249;28;20417;-76
2023/11/27 13:51:20;;;;;;;;;;;;;;;;;;4968785;28;19965;-74
2023/11/27 13:57:05;;;;;;;;;;;;;;;;;;4968973;28;19937;-76
2023/11/27 13:59:38;;;;;;;;;;;;;;;;;;4951824;28;19972;-75
2023/11/27 14:02:13;;;;;;;;;;;;;;;;;;4950160;28;19921;-75
2023/11/27 14:04:38;;;;;;;;;;;;;;;;;;4950369;28;20431;-74
2023/11/27 14:07:07;;;;;;;;;;;;;;;;;;4951737;28;20009;-76
2023/11/27 14:12:15;;;;;;;;;;;;;;;;;;4969860;28;19945;-73
2023/11/27 14:14:41;;;;;;;;;;;;;;;;;;4970297;28;19926;-72
2023/11/27 14:17:17;;;;;;;;;;;;;;;;;;4944428;28;19922;-74
2023/11/27 14:28:57;;;;;;;;;;;;;;;;;;4967259;28;19925;-74
2023/11/27 14:31:21;;;;;;;;;;;;;;;;;;4951845;28;19969;-73
2023/11/27 14:33:59;;;;;;;;;;;;;;;;;;4965726;28;19917;-75
2023/11/27 14:36:29;;;;;;;;;;;;;;;;;;4952110;28;20337;-74
2023/11/27 14:38:55;;;;;;;;;;;;;;;;;;4965860;28;19971;-75
2023/11/27 14:41:20;;;;;;;;;;;;;;;;;;4953432;28;19921;-76
2023/11/27 14:43:51;;;;;;;;;;;;;;;;;;4952381;28;19924;-73
2023/11/27 14:46:16;;;;;;;;;;;;;;;;;;4952946;28;19921;-73
2023/11/27 14:48:41;;;;;;;;;;;;;;;;;;4951117;28;19921;-72
2023/11/27 14:51:09;;;;;;;;;;;;;;;;;;4966395;28;19953;-75
2023/11/27 14:53:34;;;;;;;;;;;;;;;;;;4968292;28;20029;-74
2023/11/27 14:56:07;;;;;;;;;;;;;;;;;;4951457;28;20422;-74
2023/11/27 14:58:33;;;;;;;;;;;;;;;;;;4969710;28;20017;-74
2023/11/27 15:01:01;;;;;;;;;;;;;;;;;;4961130;28;19918;-74
2023/11/27 15:03:27;;;;;;;;;;;;;;;;;;4962814;28;20464;-74
2023/11/27 15:09:21;;;;;;;;;;;;;;;;;;4966802;28;20383;-73
2023/11/27 15:11:46;;;;;;;;;;;;;;;;;;4968493;28;19917;-73
2023/11/27 15:14:12;;;;;;;;;;;;;;;;;;4952276;28;19976;-72
2023/11/27 15:16:37;;;;;;;;;;;;;;;;;;4969790;28;20071;-74
2023/11/27 15:19:08;;;;;;;;;;;;;;;;;;4953870;28;19929;-75
2023/11/27 15:21:37;;;;;;;;;;;;;;;;;;4957340;28;19997;-74
2023/11/27 15:24:03;;;;;;;;;;;;;;;;;;4954336;28;19920;-76
2023/11/27 15:26:29;;;;;;;;;;;;;;;;;;4945907;28;19922;-75
2023/11/27 15:28:57;;;;;;;;;;;;;;;;;;4971827;28;20052;-72
2023/11/27 15:31:22;;;;;;;;;;;;;;;;;;4955456;28;19921;-71
2023/11/27 15:33:50;;;;;;;;;;;;;;;;;;4954539;28;20042;-74
2023/11/27 15:36:16;;;;;;;;;;;;;;;;;;4955325;28;19922;-74
2023/11/27 15:38:42;;;;;;;;;;;;;;;;;;4973074;28;19925;-71
2023/11/27 15:41:10;;;;;;;;;;;;;;;;;;4950244;28;19954;-71
2023/11/27 15:43:35;;;;;;;;;;;;;;;;;;4969056;28;19918;-73
2023/11/27 15:46:00;;;;;;;;;;;;;;;;;;4953303;28;19922;-72
2023/11/27 15:48:26;;;;;;;;;;;;;;;;;;4970157;28;19936;-71
2023/11/27 15:50:56;;;;;;;;;;;;;;;;;;4954346;28;20569;-72
2023/11/27 15:53:22;;;;;;;;;;;;;;;;;;4970384;28;19921;-70
2023/11/27 15:56:10;;;;;;;;;;;;;;;;;;4968519;28;20546;-73
2023/11/27 15:58:35;;;;;;;;;;;;;;;;;;4967594;28;19926;-73
2023/11/27 16:01:02;;;;;;;;;;;;;;;;;;4953753;28;20387;-72
2023/11/27 16:03:30;;;;;;;;;;;;;;;;;;4952491;28;19969;-72
2023/11/27 16:06:01;;;;;;;;;;;;;;;;;;4969754;28;19964;-70
2023/11/27 16:08:26;;;;;;;;;;;;;;;;;;4954416;28;19921;-70
2023/11/27 16:10:55;;;;;;;;;;;;;;;;;;4972379;28;19925;-71
2023/11/27 16:13:22;;;;;;;;;;;;;;;;;;4953027;28;19914;-72
2023/11/27 16:15:51;;;;;;;;;;;;;;;;;;4952083;28;19922;-72
2023/11/27 16:18:17;;;;;;;;;;;;;;;;;;4969065;28;19918;-70
2023/11/27 16:20:46;;;;;;;;;;;;;;;;;;4952589;28;19917;-71
2023/11/27 16:23:11;;;;;;;;;;;;;;;;;;4949333;28;20542;-69
2023/11/27 16:25:36;;;;;;;;;;;;;;;;;;4953967;28;20008;-70
2023/11/27 16:28:04;;;;;;;;;;;;;;;;;;4950364;28;20048;-72
2023/11/27 16:30:35;;;;;;;;;;;;;;;;;;4970134;28;20221;-69
2023/11/27 16:33:03;;;;;;;;;;;;;;;;;;4970878;28;20545;-70
2023/11/27 16:35:28;;;;;;;;;;;;;;;;;;4952818;28;19922;-70
2023/11/27 16:37:56;;;;;;;;;;;;;;;;;;4952921;28;19924;-70
2023/11/27 16:40:25;;;;;;;;;;;;;;;;;;4968564;28;20826;-70
2023/11/27 16:42:51;;;;;;;;;;;;;;;;;;4951832;28;20401;-71
2023/11/27 16:45:17;;;;;;;;;;;;;;;;;;4970826;28;19932;-69
2023/11/27 16:47:45;;;;;;;;;;;;;;;;;;4950839;28;19918;-69
2023/11/27 16:50:16;;;;;;;;;;;;;;;;;;4955827;28;19921;-70
2023/11/27 16:52:44;;;;;;;;;;;;;;;;;;4954287;28;20017;-71
2023/11/27 16:55:09;;;;;;;;;;;;;;;;;;4953686;28;19968;-70
2023/11/27 16:57:37;;;;;;;;;;;;;;;;;;4952355;28;19926;-71
2023/11/27 17:00:08;;;;;;;;;;;;;;;;;;4950717;28;19921;-70
2023/11/27 17:02:34;;;;;;;;;;;;;;;;;;4965135;28;19953;-67
2023/11/27 17:05:02;;;;;;;;;;;;;;;;;;4972310;28;19972;-70
2023/11/27 17:07:33;;;;;;;;;;;;;;;;;;4952430;28;19921;-70
2023/11/27 17:10:04;;;;;;;;;;;;;;;;;;4955285;28;19918;-71
2023/11/27 17:12:30;;;;;;;;;;;;;;;;;;4968486;28;19928;-71
2023/11/27 17:14:56;;;;;;;;;;;;;;;;;;4971260;28;19922;-72
2023/11/27 17:17:21;;;;;;;;;;;;;;;;;;4952182;28;20350;-70
2023/11/27 17:19:46;;;;;;;;;;;;;;;;;;4970688;28;19933;-73